Time;durP1;ratioP1;P1;durP2;ratioP2;P2;SDS_P1;SDS_P2;PMS_P1;PMS_P2;Temp;Humidity;BMP_temperature;BMP_pressure;BME280_temperature;BME280_humidity;BME280_pressure;Samples;Min_cycle;Max_cycle;Signal;HPM_P1;HPM_P2
2021/01/02 00:00:06;;;;;;;34.63;17.27;;;;;;;3.08;100.00;101232.53;4831008;29;20038;-89
2021/01/02 00:02:44;;;;;;;31.52;17.35;;;;;;;3.06;100.00;101225.56;4831677;29;20312;-88
2021/01/02 00:05:11;;;;;;;36.78;17.98;;;;;;;3.04;100.00;101230.81;4823820;29;20034;-88
2021/01/02 00:07:58;;;;;;;34.05;17.40;;;;;;;3.06;100.00;101229.09;4814009;29;20075;-87
2021/01/02 00:10:31;;;;;;;32.38;18.40;;;;;;;2.96;100.00;101216.06;4817288;29;20030;-89
2021/01/02 00:13:10;;;;;;;38.67;18.77;;;;;;;3.01;100.00;101238.69;4817596;29;20049;-87
2021/01/02 00:16:05;;;;;;;34.72;19.55;;;;;;;2.95;100.00;101235.25;4817204;29;20075;-88
2021/01/02 00:18:49;;;;;;;36.70;18.00;;;;;;;2.96;100.00;101234.34;4806692;29;20044;-90
2021/01/02 00:21:27;;;;;;;35.97;17.95;;;;;;;2.92;100.00;101230.06;4827506;29;20034;-88
2021/01/02 00:24:04;;;;;;;32.42;17.48;;;;;;;3.06;100.00;101230.81;4833362;29;20030;-86
2021/01/02 00:26:44;;;;;;;37.03;18.83;;;;;;;3.04;100.00;101230.81;4828369;29;20109;-88
2021/01/02 00:29:18;;;;;;;34.92;18.73;;;;;;;3.05;100.00;101236.91;4816105;29;20038;-85
2021/01/02 00:32:01;;;;;;;34.78;18.08;;;;;;;2.95;100.00;101223.06;4829709;29;20034;-89
2021/01/02 00:34:54;;;;;;;36.55;19.17;;;;;;;3.05;100.00;101234.28;4833322;29;20120;-86
2021/01/02 00:37:36;;;;;;;32.20;17.77;;;;;;;3.04;100.00;101229.97;4812763;29;20031;-88
2021/01/02 00:40:10;;;;;;;39.17;18.48;;;;;;;3.09;100.00;101231.66;4813964;29;20215;-86
2021/01/02 00:42:39;;;;;;;37.22;18.92;;;;;;;3.04;100.00;101229.97;4831458;29;20018;-86
2021/01/02 00:45:11;;;;;;;39.80;20.50;;;;;;;3.03;100.00;101228.22;4829963;29;20030;-87
2021/01/02 00:47:41;;;;;;;32.80;18.42;;;;;;;2.98;100.00;101217.81;4829186;29;20030;-86
2021/01/02 00:50:10;;;;;;;35.88;20.50;;;;;;;3.00;100.00;101223.03;4811406;29;20056;-84
2021/01/02 00:52:44;;;;;;;33.30;18.05;;;;;;;3.05;100.00;101237.78;4828338;29;20299;-87
2021/01/02 00:55:24;;;;;;;39.88;20.70;;;;;;;3.07;100.00;101225.59;4828760;29;20125;-88
2021/01/02 00:57:49;;;;;;;32.67;18.50;;;;;;;3.13;100.00;101234.25;4824884;29;20036;-87
2021/01/02 01:00:24;;;;;;;35.75;19.10;;;;;;;3.04;100.00;101220.38;4820990;29;20042;-89
2021/01/02 01:03:05;;;;;;;36.58;18.67;;;;;;;3.07;100.00;101232.56;4810866;29;20033;-88
2021/01/02 01:05:38;;;;;;;36.17;19.85;;;;;;;3.03;100.00;101223.88;4830542;29;20034;-88
2021/01/02 01:08:05;;;;;;;37.58;21.90;;;;;;;3.02;100.00;101239.56;4828724;29;20113;-88
2021/01/02 01:10:35;;;;;;;33.83;19.42;;;;;;;3.11;100.00;101239.47;4823628;29;20095;-88
2021/01/02 01:13:23;;;;;;;37.78;20.48;;;;;;;3.08;100.00;101236.91;4824290;29;20034;-88
2021/01/02 01:15:49;;;;;;;38.70;20.67;;;;;;;3.04;100.00;101237.78;4828089;29;20027;-89
2021/01/02 01:18:35;;;;;;;38.83;18.98;;;;;;;3.13;100.00;101248.19;4825935;29;20543;-88
2021/01/02 01:21:01;;;;;;;41.13;20.85;;;;;;;3.06;100.00;101246.47;4824018;29;20046;-90
2021/01/02 01:23:30;;;;;;;34.92;19.85;;;;;;;3.09;100.00;101243.84;4824595;29;20046;-88
2021/01/02 01:26:16;;;;;;;36.10;19.73;;;;;;;3.07;100.00;101253.47;4828994;29;20042;-89
2021/01/02 01:28:45;;;;;;;37.23;21.70;;;;;;;3.09;100.00;101256.91;4824642;29;20527;-84
2021/01/02 01:31:16;;;;;;;43.28;19.27;;;;;;;3.16;100.00;101250.75;4826276;29;20095;-88
2021/01/02 01:33:47;;;;;;;33.75;19.55;;;;;;;3.13;100.00;101247.31;4826815;29;20034;-87
2021/01/02 01:36:16;;;;;;;36.80;20.08;;;;;;;3.03;100.00;101243.91;4822754;29;20045;-87
2021/01/02 01:38:43;;;;;;;40.80;19.48;;;;;;;3.10;100.00;101254.28;4823349;29;20069;-89
2021/01/02 01:41:16;;;;;;;41.08;19.88;;;;;;;3.14;100.00;101249.91;4818217;29;20039;-88
2021/01/02 01:44:10;;;;;;;39.65;20.23;;;;;;;3.11;100.00;101258.66;4820214;29;20034;-83
2021/01/02 01:46:50;;;;;;;35.75;20.83;;;;;;;3.02;100.00;101255.22;4842419;29;20065;-84
2021/01/02 01:49:28;;;;;;;40.63;20.70;;;;;;;3.03;100.00;101255.22;4825942;29;20041;-84
2021/01/02 01:51:58;;;;;;;35.40;19.65;;;;;;;3.01;100.00;101254.38;4841878;29;20102;-86
2021/01/02 01:54:48;;;;;;;35.63;19.55;;;;;;;3.06;100.00;101257.81;4842911;29;20093;-84
2021/01/02 01:57:23;;;;;;;36.60;18.95;;;;;;;3.01;100.00;101256.09;4842484;29;20022;-84
2021/01/02 01:59:57;;;;;;;44.22;20.58;;;;;;;3.00;100.00;101263.06;4842000;29;20115;-84
2021/01/02 02:02:44;;;;;;;38.53;21.65;;;;;;;2.99;100.00;101261.31;4842692;29;20042;-84
2021/01/02 02:05:11;;;;;;;39.63;18.83;;;;;;;2.95;100.00;101258.75;4826315;29;20018;-84
2021/01/02 02:08:03;;;;;;;36.88;19.02;;;;;;;2.91;100.00;101250.06;4821747;29;20023;-83
2021/01/02 02:10:35;;;;;;;46.40;21.38;;;;;;;2.96;100.00;101257.84;4844186;29;20042;-84
2021/01/02 02:13:12;;;;;;;37.08;20.23;;;;;;;2.95;100.00;101259.59;4840100;29;20045;-83
2021/01/02 02:15:50;;;;;;;39.22;20.90;;;;;;;2.94;100.00;101268.31;4840917;29;20029;-84
2021/01/02 02:18:20;;;;;;;43.53;21.00;;;;;;;2.91;100.00;101259.63;4841313;29;20018;-84
2021/01/02 02:20:47;;;;;;;33.03;18.52;;;;;;;2.94;100.00;101262.22;4846361;29;20017;-83
2021/01/02 02:23:14;;;;;;;38.08;19.42;;;;;;;2.83;100.00;101257.94;4832616;29;20057;-83
2021/01/02 02:25:49;;;;;;;45.47;21.58;;;;;;;2.88;100.00;101260.53;4828652;29;20068;-88
2021/01/02 02:28:40;;;;;;;39.10;20.95;;;;;;;2.85;100.00;101265.75;4819805;29;20032;-85
2021/01/02 02:31:07;;;;;;;39.80;20.15;;;;;;;2.85;100.00;101271.84;4824044;29;20026;-84
2021/01/02 02:33:34;;;;;;;43.75;20.67;;;;;;;2.83;100.00;101260.56;4816958;29;20388;-87
2021/01/02 02:36:00;;;;;;;44.78;21.05;;;;;;;2.80;100.00;101255.34;4819215;29;20038;-89
2021/01/02 02:38:26;;;;;;;35.80;20.00;;;;;;;2.85;100.00;101263.16;4804171;29;20058;-89
2021/01/02 02:40:52;;;;;;;38.20;21.00;;;;;;;2.81;100.00;101258.81;4822509;29;20046;-86
2021/01/02 02:43:18;;;;;;;35.50;19.70;;;;;;;2.78;100.00;101267.56;4822809;29;20105;-89
2021/01/02 02:45:48;;;;;;;41.97;20.80;;;;;;;2.78;100.00;101259.72;4822408;29;20026;-89
2021/01/02 02:48:15;;;;;;;41.05;22.05;;;;;;;2.74;100.00;101260.59;4805621;29;20128;-89
2021/01/02 02:50:46;;;;;;;32.83;19.38;;;;;;;2.62;100.00;101262.44;4806725;29;20054;-89
2021/01/02 02:53:12;;;;;;;41.80;20.48;;;;;;;2.69;100.00;101264.13;4801912;29;20035;-87
2021/01/02 02:55:40;;;;;;;36.20;19.85;;;;;;;2.67;100.00;101271.97;4804449;29;20506;-88
2021/01/02 02:58:06;;;;;;;34.35;20.58;;;;;;;2.66;100.00;101271.94;4804520;29;20042;-86
2021/01/02 03:00:32;;;;;;;42.72;21.38;;;;;;;2.63;100.00;101266.78;4802622;29;20147;-87
2021/01/02 03:02:58;;;;;;;40.33;20.75;;;;;;;2.71;100.00;101252.81;4789880;29;20038;-87
2021/01/02 03:05:23;;;;;;;35.63;20.08;;;;;;;2.72;100.00;101256.28;4805979;29;20019;-88
2021/01/02 03:07:49;;;;;;;36.63;20.10;;;;;;;2.75;100.00;101267.56;4803304;29;20123;-89
2021/01/02 03:10:17;;;;;;;40.08;20.63;;;;;;;2.73;100.00;101269.31;4799979;29;20491;-86
2021/01/02 03:12:47;;;;;;;35.35;20.52;;;;;;;2.74;100.00;101263.22;4799288;29;20088;-86
2021/01/02 03:15:14;;;;;;;37.63;20.67;;;;;;;2.71;100.00;101270.19;4800914;29;20115;-88
2021/01/02 03:17:42;;;;;;;37.65;20.20;;;;;;;2.84;100.00;101271.88;4800624;29;20037;-88
2021/01/02 03:20:08;;;;;;;35.30;20.23;;;;;;;2.74;100.00;101268.44;4805261;29;20509;-87
2021/01/02 03:22:33;;;;;;;35.65;20.00;;;;;;;2.76;100.00;101264.09;4801563;29;20059;-90
2021/01/02 03:24:59;;;;;;;40.60;21.40;;;;;;;2.73;100.00;101281.50;4806059;29;20031;-89
2021/01/02 03:27:24;;;;;;;38.53;21.70;;;;;;;2.82;100.00;101260.56;4802794;29;20015;-87
2021/01/02 03:29:49;;;;;;;41.58;19.98;;;;;;;2.80;100.00;101251.88;4800830;29;20121;-90
2021/01/02 03:32:15;;;;;;;37.65;21.05;;;;;;;2.75;100.00;101259.72;4801430;29;20074;-86
2021/01/02 03:34:41;;;;;;;40.25;19.35;;;;;;;2.77;100.00;101259.75;4803439;29;20411;-86
2021/01/02 03:37:08;;;;;;;38.17;21.63;;;;;;;2.76;100.00;101266.72;4797547;29;20034;-86
2021/01/02 03:39:34;;;;;;;38.00;20.17;;;;;;;2.74;100.00;101257.13;4803396;29;20045;-87
2021/01/02 03:41:59;;;;;;;41.00;20.23;;;;;;;2.75;100.00;101259.72;4812173;29;20030;-86
2021/01/02 03:44:24;;;;;;;37.50;19.48;;;;;;;2.75;100.00;101258.84;4814983;29;20102;-84
2021/01/02 03:46:50;;;;;;;39.63;21.42;;;;;;;2.78;100.00;101272.78;4821821;29;20027;-83
2021/01/02 03:49:15;;;;;;;40.92;21.77;;;;;;;2.83;100.00;101257.09;4822415;29;20487;-85
2021/01/02 03:51:40;;;;;;;34.75;19.10;;;;;;;2.84;100.00;101253.59;4843747;29;20094;-84
2021/01/02 03:54:06;;;;;;;43.15;19.70;;;;;;;2.78;100.00;101251.88;4836756;29;20022;-84
2021/01/02 03:56:31;;;;;;;44.85;22.83;;;;;;;2.73;100.00;101263.22;4829772;29;20034;-86
2021/01/02 03:58:56;;;;;;;37.83;19.90;;;;;;;2.67;100.00;101261.53;4821088;29;20066;-86
2021/01/02 04:01:21;;;;;;;41.03;20.27;;;;;;;2.66;100.00;101265.03;4828581;29;20053;-86
2021/01/02 04:03:47;;;;;;;38.67;19.67;;;;;;;2.72;100.00;101270.19;4815524;29;20352;-88
2021/01/02 04:06:12;;;;;;;37.17;21.17;;;;;;;2.69;100.00;101274.56;4825598;29;20114;-86
2021/01/02 04:08:37;;;;;;;34.95;19.83;;;;;;;2.74;100.00;101264.97;4819454;29;20087;-87
2021/01/02 04:11:03;;;;;;;37.20;20.25;;;;;;;2.74;100.00;101259.75;4826304;29;20034;-89
2021/01/02 04:13:28;;;;;;;36.40;18.17;;;;;;;2.77;100.00;101268.44;4823661;29;20038;-88
2021/01/02 04:15:53;;;;;;;42.60;20.88;;;;;;;2.72;100.00;101262.38;4827659;29;20022;-88
2021/01/02 04:18:19;;;;;;;36.60;20.08;;;;;;;2.69;100.00;101266.72;4821657;29;20042;-89
2021/01/02 04:20:47;;;;;;;43.95;22.35;;;;;;;2.69;100.00;101259.75;4824535;29;20034;-86
2021/01/02 04:23:12;;;;;;;41.53;22.00;;;;;;;2.64;100.00;101258.91;4827511;29;20103;-86
2021/01/02 04:25:41;;;;;;;39.97;21.90;;;;;;;2.67;100.00;101258.91;4822941;29;20106;-88
2021/01/02 04:28:09;;;;;;;38.92;20.45;;;;;;;2.66;100.00;101264.13;4808088;29;20457;-84
2021/01/02 04:30:34;;;;;;;38.55;20.55;;;;;;;2.75;100.00;101272.78;4821216;29;20414;-89
2021/01/02 04:33:00;;;;;;;42.25;20.33;;;;;;;2.69;100.00;101256.28;4818908;29;20057;-88
2021/01/02 04:35:25;;;;;;;41.95;22.95;;;;;;;2.74;100.00;101259.75;4824168;29;20140;-89
2021/01/02 04:37:50;;;;;;;40.38;22.27;;;;;;;2.59;100.00;101273.75;4823373;29;20726;-87
2021/01/02 04:40:15;;;;;;;38.70;21.67;;;;;;;2.69;100.00;101264.97;4825873;29;20038;-86
2021/01/02 04:42:42;;;;;;;45.15;22.13;;;;;;;2.70;100.00;101266.72;4823414;29;20042;-89
2021/01/02 04:45:09;;;;;;;40.78;21.13;;;;;;;2.69;100.00;101262.38;4823586;29;20086;-88
2021/01/02 04:47:36;;;;;;;36.90;22.00;;;;;;;2.67;100.00;101273.72;4804219;29;20126;-88
2021/01/02 04:50:04;;;;;;;36.38;20.33;;;;;;;2.74;100.00;101275.41;4817722;29;20042;-88
2021/01/02 04:52:31;;;;;;;32.25;19.67;;;;;;;2.57;100.00;101276.38;4830649;29;20034;-88
2021/01/02 04:54:58;;;;;;;38.80;20.60;;;;;;;2.60;100.00;101285.91;4804398;29;20255;-88
2021/01/02 04:57:23;;;;;;;43.25;21.67;;;;;;;2.63;100.00;101278.06;4820252;29;20038;-89
2021/01/02 04:59:50;;;;;;;40.25;20.90;;;;;;;2.70;100.00;101284.13;4819651;29;20134;-89
2021/01/02 05:02:21;;;;;;;36.97;21.00;;;;;;;2.58;100.00;101277.22;4821904;29;20051;-86
2021/01/02 05:04:48;;;;;;;39.40;22.58;;;;;;;2.47;100.00;101277.28;4806040;29;20038;-88
2021/01/02 05:07:28;;;;;;;42.38;21.60;;;;;;;2.63;100.00;101285.91;4831919;29;20613;-86
2021/01/02 05:09:55;;;;;;;45.10;22.52;;;;;;;2.57;100.00;101280.72;4841805;29;20538;-85
2021/01/02 05:12:31;;;;;;;38.97;22.13;;;;;;;2.57;100.00;101285.94;4838822;29;20019;-84
2021/01/02 05:15:09;;;;;;;42.83;22.45;;;;;;;2.58;100.00;101280.69;4841903;29;20038;-85
2021/01/02 05:17:36;;;;;;;37.28;21.13;;;;;;;2.60;100.00;101283.28;4840609;29;20060;-84
2021/01/02 05:20:13;;;;;;;38.42;21.60;;;;;;;2.62;100.00;101288.53;4842475;29;20063;-84
2021/01/02 05:22:41;;;;;;;35.78;20.05;;;;;;;2.51;100.00;101285.94;4828501;29;20071;-86
2021/01/02 05:25:14;;;;;;;41.60;21.45;;;;;;;2.55;100.00;101295.50;4821324;29;20046;-84
2021/01/02 05:27:45;;;;;;;47.63;22.85;;;;;;;2.53;100.00;101292.03;4817592;29;20034;-86
2021/01/02 05:30:34;;;;;;;42.47;20.42;;;;;;;2.58;100.00;101292.88;4820539;29;20087;-86
2021/01/02 05:33:11;;;;;;;43.45;23.35;;;;;;;2.53;100.00;101294.66;4809492;29;20040;-89
2021/01/02 05:35:44;;;;;;;39.63;21.48;;;;;;;2.54;100.00;101297.25;4828072;29;20027;-85
2021/01/02 05:38:25;;;;;;;39.10;21.25;;;;;;;2.43;100.00;101299.03;4826164;29;20098;-88
2021/01/02 05:40:54;;;;;;;40.00;21.67;;;;;;;2.50;100.00;101305.09;4824450;29;20037;-88
2021/01/02 05:43:22;;;;;;;37.10;21.45;;;;;;;2.39;100.00;101296.44;4820514;29;20034;-89
2021/01/02 05:45:49;;;;;;;46.25;21.92;;;;;;;2.44;100.00;101300.75;4810790;29;20423;-89
2021/01/02 05:48:18;;;;;;;40.80;22.85;;;;;;;2.43;100.00;101301.63;4822678;29;20027;-87
2021/01/02 05:50:52;;;;;;;41.53;22.25;;;;;;;2.54;100.00;101309.41;4827496;29;20575;-87
2021/01/02 05:53:25;;;;;;;52.45;23.75;;;;;;;2.43;100.00;101304.25;4821213;29;20126;-88
2021/01/02 05:56:10;;;;;;;44.03;22.55;;;;;;;2.46;100.00;101305.97;4824408;29;20565;-88
2021/01/02 05:58:45;;;;;;;44.55;23.67;;;;;;;2.33;100.00;101302.53;4823605;29;20046;-86
2021/01/02 06:01:12;;;;;;;38.05;21.30;;;;;;;2.39;100.00;101307.72;4826612;29;20038;-87
2021/01/02 06:03:39;;;;;;;41.75;22.63;;;;;;;2.33;100.00;101297.34;4826016;29;20034;-89
2021/01/02 06:06:14;;;;;;;41.50;22.75;;;;;;;2.39;100.00;101306.88;4825110;29;20041;-88
2021/01/02 06:08:44;;;;;;;39.47;22.15;;;;;;;2.36;100.00;101305.16;4823544;29;20453;-88
2021/01/02 06:11:23;;;;;;;39.33;20.05;;;;;;;2.31;100.00;101299.09;4828551;29;20501;-85
2021/01/02 06:13:53;;;;;;;39.50;22.15;;;;;;;2.37;100.00;101306.88;4827387;29;20494;-88
2021/01/02 06:16:19;;;;;;;42.00;22.70;;;;;;;2.39;100.00;101312.94;4821515;29;20488;-89
2021/01/02 06:18:46;;;;;;;44.30;22.20;;;;;;;2.31;100.00;101307.78;4830682;29;20117;-87
2021/01/02 06:21:16;;;;;;;42.97;21.27;;;;;;;2.36;100.00;101318.19;4840985;29;20022;-84
2021/01/02 06:23:44;;;;;;;37.28;20.90;;;;;;;2.27;100.00;101308.66;4818989;29;20118;-87
2021/01/02 06:26:11;;;;;;;43.20;22.17;;;;;;;2.28;100.00;101318.22;4820099;29;20030;-87
2021/01/02 06:28:40;;;;;;;41.25;22.33;;;;;;;2.32;100.00;101319.94;4823101;29;20052;-84
2021/01/02 06:31:10;;;;;;;39.50;21.60;;;;;;;2.34;100.00;101318.19;4836895;29;20963;-86
2021/01/02 06:33:36;;;;;;;42.20;21.45;;;;;;;2.28;100.00;101309.53;4823587;29;20038;-86
2021/01/02 06:36:03;;;;;;;44.20;21.38;;;;;;;2.36;100.00;101317.31;4817365;29;20922;-87
2021/01/02 06:38:29;;;;;;;37.30;20.38;;;;;;;2.29;100.00;101314.72;4819475;29;20030;-88
2021/01/02 06:40:57;;;;;;;42.90;22.13;;;;;;;2.37;100.00;101339.94;4828110;29;20037;-88
2021/01/02 06:43:24;;;;;;;43.20;21.20;;;;;;;2.43;100.00;101321.66;4817497;29;20483;-85
2021/01/02 06:45:57;;;;;;;40.58;21.15;;;;;;;2.32;100.00;101326.91;4822056;29;20033;-89
2021/01/02 06:48:24;;;;;;;39.63;22.33;;;;;;;2.45;100.00;101327.72;4821164;29;20041;-86
2021/01/02 06:50:50;;;;;;;39.30;20.60;;;;;;;2.51;100.00;101327.69;4820476;29;20046;-89
2021/01/02 06:53:18;;;;;;;42.03;22.15;;;;;;;2.51;100.00;101325.06;4809470;29;20042;-88
2021/01/02 06:55:43;;;;;;;45.28;23.08;;;;;;;2.49;100.00;101326.84;4823810;29;20046;-89
2021/01/02 06:58:16;;;;;;;42.08;22.60;;;;;;;2.48;100.00;101332.94;4824144;29;20038;-89
2021/01/02 07:00:42;;;;;;;47.15;23.17;;;;;;;2.42;100.00;101333.81;4820379;29;20037;-86
2021/01/02 07:03:38;;;;;;;50.00;23.92;;;;;;;2.45;100.00;101331.19;4805999;29;20050;-87
2021/01/02 07:06:22;;;;;;;47.63;22.25;;;;;;;2.50;100.00;101341.63;4819243;29;20098;-87
2021/01/02 07:09:11;;;;;;;42.67;22.20;;;;;;;2.52;100.00;101338.13;4817513;29;20059;-89
2021/01/02 07:11:47;;;;;;;51.78;24.77;;;;;;;2.48;100.00;101328.59;4820536;29;20229;-85
2021/01/02 07:14:14;;;;;;;46.08;23.20;;;;;;;2.51;100.00;101346.84;4823219;29;20038;-85
2021/01/02 07:17:04;;;;;;;57.60;24.83;;;;;;;2.57;100.00;101345.97;4817644;29;20074;-87
2021/01/02 07:19:37;;;;;;;51.95;24.30;;;;;;;2.58;100.00;101345.06;4797269;29;20034;-88
2021/01/02 07:22:17;;;;;;;54.92;26.38;;;;;;;2.55;100.00;101364.22;4816942;29;20034;-88
2021/01/02 07:24:48;;;;;;;56.60;27.13;;;;;;;2.52;100.00;101339.88;4815815;29;20038;-87
2021/01/02 07:27:18;;;;;;;61.88;28.13;;;;;;;2.47;100.00;101352.06;4815016;29;20035;-86
2021/01/02 07:29:47;;;;;;;60.67;29.10;;;;;;;2.49;100.00;101352.94;4815303;29;20034;-89
2021/01/02 07:32:14;;;;;;;66.00;28.58;;;;;;;2.55;100.00;101353.78;4824513;29;20061;-87
2021/01/02 07:34:42;;;;;;;69.00;28.58;;;;;;;2.43;100.00;101355.56;4815794;29;20030;-87
2021/01/02 07:37:10;;;;;;;72.05;29.17;;;;;;;2.46;100.00;101359.03;4807848;29;20677;-87
2021/01/02 07:39:36;;;;;;;74.32;29.98;;;;;;;2.39;100.00;101365.13;4821146;29;20385;-85
2021/01/02 07:42:10;;;;;;;74.60;30.70;;;;;;;2.44;100.00;101367.72;4819859;29;20041;-87
2021/01/02 07:44:40;;;;;;;91.68;32.22;;;;;;;2.32;100.00;101358.22;4826121;29;20031;-85
2021/01/02 07:47:07;;;;;;;83.65;32.35;;;;;;;2.38;100.00;101365.16;4815310;29;20038;-86
2021/01/02 07:49:33;;;;;;;80.45;29.83;;;;;;;2.38;100.00;101372.97;4824534;29;20050;-87
2021/01/02 07:51:58;;;;;;;86.15;32.42;;;;;;;2.43;100.00;101373.81;4824380;29;20038;-88
2021/01/02 07:54:31;;;;;;;78.88;33.45;;;;;;;2.39;100.00;101372.97;4820173;29;20047;-88
2021/01/02 07:56:56;;;;;;;76.60;31.13;;;;;;;2.38;100.00;101367.75;4816322;29;20197;-86
2021/01/02 07:59:26;;;;;;;73.13;30.48;;;;;;;2.38;100.00;101376.44;4823086;29;20030;-87
2021/01/02 08:02:01;;;;;;;86.80;32.28;;;;;;;2.39;100.00;101388.59;4824727;29;20087;-88
2021/01/02 08:04:29;;;;;;;58.25;23.48;;;;;;;2.34;100.00;101383.41;4819320;29;20053;-88
2021/01/02 08:07:06;;;;;;;75.43;30.02;;;;;;;2.31;100.00;101396.47;4819657;29;20145;-87
2021/01/02 08:09:33;;;;;;;67.03;29.50;;;;;;;2.42;100.00;101396.44;4823080;29;20759;-89
2021/01/02 08:12:04;;;;;;;73.18;30.65;;;;;;;2.45;100.00;101395.56;4809739;29;20049;-88
2021/01/02 08:14:31;;;;;;;66.60;32.50;;;;;;;2.43;100.00;101395.56;4817408;29;20035;-86
2021/01/02 08:17:08;;;;;;;67.38;31.40;;;;;;;2.44;100.00;101404.25;4805812;29;20043;-87
2021/01/02 08:19:37;;;;;;;90.65;28.65;;;;;;;2.40;100.00;101403.38;4828251;29;20095;-87
2021/01/02 08:22:04;;;;;;;61.30;29.23;;;;;;;2.42;100.00;101409.50;4834239;29;20054;-87
2021/01/02 08:24:30;;;;;;;71.57;27.67;;;;;;;2.48;100.00;101404.25;4821921;29;20059;-88
2021/01/02 08:26:56;;;;;;;90.03;29.08;;;;;;;2.51;100.00;101400.75;4825249;29;20038;-85
2021/01/02 08:29:24;;;;;;;97.97;30.88;;;;;;;2.48;100.00;101392.94;4826300;29;20042;-88
2021/01/02 08:31:53;;;;;;;88.55;30.13;;;;;;;2.51;100.00;101398.13;4814829;29;20058;-89
2021/01/02 08:34:26;;;;;;;101.32;31.77;;;;;;;2.43;100.00;101400.78;4820457;29;20118;-90
2021/01/02 08:36:56;;;;;;;73.30;30.50;;;;;;;2.52;100.00;101394.69;4817182;29;20037;-90
2021/01/02 08:39:22;;;;;;;74.82;29.30;;;;;;;2.56;100.00;101407.72;4823310;29;20016;-89
2021/01/02 08:41:56;;;;;;;78.97;30.63;;;;;;;2.55;100.00;101405.97;4836099;29;20029;-91
2021/01/02 08:44:24;;;;;;;77.05;31.40;;;;;;;2.48;100.00;101400.78;4828633;29;20053;-88
2021/01/02 08:46:49;;;;;;;75.47;31.55;;;;;;;2.56;100.00;101410.34;4842971;29;20027;-91
2021/01/02 08:49:31;;;;;;;81.07;32.00;;;;;;;2.53;100.00;101417.28;4844045;29;20270;-91
2021/01/02 08:52:22;;;;;;;79.57;33.67;;;;;;;2.56;100.00;101412.94;4816005;29;20023;-90
2021/01/02 08:54:50;;;;;;;77.60;31.90;;;;;;;2.54;100.00;101419.88;4836575;29;20113;-93
2021/01/02 08:57:33;;;;;;;80.47;32.33;;;;;;;2.53;100.00;101412.94;4826533;29;20026;-88
2021/01/02 09:00:05;;;;;;;63.85;31.35;;;;;;;2.57;100.00;101421.63;4841848;29;20042;-88
2021/01/02 09:02:30;;;;;;;84.93;32.92;;;;;;;2.39;100.00;101406.00;4842163;29;20034;-88
2021/01/02 09:05:14;;;;;;;67.07;31.15;;;;;;;2.42;100.00;101408.63;4824124;29;20019;-87
2021/01/02 09:07:51;;;;;;;71.05;29.83;;;;;;;2.55;100.00;101424.22;4825005;29;20037;-87
2021/01/02 09:10:28;;;;;;;73.40;31.83;;;;;;;2.56;100.00;101423.38;4826387;29;20033;-87
2021/01/02 09:13:23;;;;;;;77.00;31.35;;;;;;;2.54;100.00;101427.72;4822731;29;20014;-88
2021/01/02 09:16:03;;;;;;;62.80;28.50;;;;;;;2.39;100.00;101403.41;4826666;29;20041;-88
2021/01/02 09:18:32;;;;;;;77.32;30.92;;;;;;;2.46;100.00;101420.75;4825734;29;20034;-87
2021/01/02 09:20:59;;;;;;;72.43;31.95;;;;;;;2.44;100.00;101419.91;4842007;29;20034;-88
2021/01/02 09:23:38;;;;;;;79.90;31.52;;;;;;;2.52;100.00;101431.22;4826617;29;20056;-87
2021/01/02 09:26:16;;;;;;;70.68;31.20;;;;;;;2.55;100.00;101437.28;4830445;29;20062;-89
2021/01/02 09:28:43;;;;;;;68.80;31.50;;;;;;;2.67;100.00;101440.75;4827224;29;20089;-88
2021/01/02 09:31:08;;;;;;;69.88;31.42;;;;;;;2.68;100.00;101427.69;4827407;29;20022;-87
2021/01/02 09:33:34;;;;;;;73.07;30.60;;;;;;;2.73;100.00;101431.16;4837366;24;20090;-79
2021/01/02 09:35:59;;;;;;;69.57;32.08;;;;;;;2.84;100.00;101444.19;4850823;29;20041;-80
2021/01/02 09:38:24;;;;;;;69.72;30.58;;;;;;;2.92;100.00;101444.16;4846395;29;20045;-80
2021/01/02 09:40:50;;;;;;;71.53;31.65;;;;;;;3.00;100.00;101444.97;4841639;29;20406;-80
2021/01/02 09:43:16;;;;;;;68.32;31.52;;;;;;;3.06;100.00;101443.25;4829006;29;20049;-79
2021/01/02 09:45:43;;;;;;;63.10;31.13;;;;;;;3.23;100.00;101444.91;4847976;29;20397;-81
2021/01/02 09:48:10;;;;;;;64.95;31.15;;;;;;;3.35;100.00;101442.22;4842761;29;20045;-80
2021/01/02 09:50:35;;;;;;;61.20;28.88;;;;;;;3.51;100.00;101443.88;4847250;29;20034;-80
2021/01/02 09:53:02;;;;;;;56.15;28.85;;;;;;;3.35;100.00;101450.06;4846663;29;21688;-80
2021/01/02 09:55:27;;;;;;;53.90;27.98;;;;;;;3.28;100.00;101451.84;4840919;29;20030;-80
2021/01/02 09:57:52;;;;;;;57.58;28.80;;;;;;;3.27;100.00;101447.50;4839234;29;20124;-80
2021/01/02 10:00:19;;;;;;;63.78;29.60;;;;;;;3.24;100.00;101452.72;4841117;29;20038;-80
2021/01/02 10:02:45;;;;;;;60.78;29.92;;;;;;;3.28;100.00;101446.63;4843433;29;20030;-80
2021/01/02 10:05:13;;;;;;;62.25;28.35;;;;;;;3.41;100.00;101449.16;4843199;29;20030;-80
2021/01/02 10:07:38;;;;;;;54.05;28.98;;;;;;;3.43;100.00;101448.28;4824385;29;20339;-80
2021/01/02 10:10:05;;;;;;;51.80;27.67;;;;;;;3.42;100.00;101451.78;4841837;29;20495;-80
2021/01/02 10:12:30;;;;;;;55.13;28.30;;;;;;;3.35;100.00;101450.91;4825578;29;20033;-80
2021/01/02 10:14:55;;;;;;;52.03;28.00;;;;;;;3.34;100.00;101453.56;4826581;29;20037;-80
2021/01/02 10:17:21;;;;;;;53.47;27.00;;;;;;;3.49;100.00;101457.84;4836487;29;20558;-80
2021/01/02 10:19:47;;;;;;;56.42;27.20;;;;;;;3.58;100.00;101455.16;4839620;29;20288;-81
2021/01/02 10:22:15;;;;;;;58.50;29.33;;;;;;;3.46;100.00;101457.84;4844453;29;20101;-80
2021/01/02 10:24:41;;;;;;;59.35;28.30;;;;;;;3.37;100.00;101457.03;4842932;29;20029;-80
2021/01/02 10:27:08;;;;;;;56.38;28.85;;;;;;;3.44;100.00;101457.84;4833909;29;20119;-81
2021/01/02 10:29:36;;;;;;;64.85;30.45;;;;;;;3.49;100.00;101461.31;4842252;29;20093;-80
2021/01/02 10:32:03;;;;;;;56.45;29.48;;;;;;;3.45;100.00;101461.34;4840528;29;20761;-80
2021/01/02 10:34:29;;;;;;;57.03;28.90;;;;;;;3.53;100.00;101468.25;4833843;29;20060;-80
2021/01/02 10:36:54;;;;;;;58.28;28.80;;;;;;;3.40;100.00;101460.50;4847973;29;20030;-80
2021/01/02 10:39:20;;;;;;;53.10;26.65;;;;;;;3.41;100.00;101462.22;4847788;29;20570;-79
2021/01/02 10:41:47;;;;;;;54.85;27.50;;;;;;;3.47;100.00;101463.06;4832265;29;20034;-81
2021/01/02 10:44:12;;;;;;;59.83;31.73;;;;;;;3.41;100.00;101459.59;4848774;29;20830;-81
2021/01/02 10:46:46;;;;;;;55.20;27.27;;;;;;;3.50;100.00;101460.44;4849543;29;20063;-81
2021/01/02 10:49:13;;;;;;;57.17;28.83;;;;;;;3.54;100.00;101464.75;4848710;29;20042;-81
2021/01/02 10:51:39;;;;;;;52.42;27.58;;;;;;;3.54;100.00;101466.50;4828465;29;20035;-81
2021/01/02 10:54:04;;;;;;;54.80;29.67;;;;;;;3.68;100.00;101459.47;4855381;29;20077;-81
2021/01/02 10:56:30;;;;;;;55.67;28.45;;;;;;;3.67;100.00;101469.94;4850599;29;20029;-81
2021/01/02 10:58:55;;;;;;;55.70;27.67;;;;;;;3.69;100.00;101455.97;4846333;29;20327;-81
2021/01/02 11:01:20;;;;;;;55.55;27.17;;;;;;;3.63;100.00;101458.63;4844595;29;20375;-81
2021/01/02 11:03:45;;;;;;;55.45;26.85;;;;;;;3.63;100.00;101453.41;4844573;29;20080;-80
2021/01/02 11:06:14;;;;;;;57.50;28.52;;;;;;;3.71;100.00;101451.59;4841024;29;20026;-80
2021/01/02 11:08:39;;;;;;;57.63;29.30;;;;;;;3.61;100.00;101445.56;4826770;29;20150;-80
2021/01/02 11:11:06;;;;;;;62.42;29.73;;;;;;;3.66;100.00;101445.53;4845645;29;20148;-80
2021/01/02 11:13:31;;;;;;;53.95;27.83;;;;;;;3.62;100.00;101439.47;4848160;29;20040;-81
2021/01/02 11:15:57;;;;;;;56.05;27.45;;;;;;;3.68;100.00;101445.53;4850166;29;20046;-81
2021/01/02 11:18:22;;;;;;;57.40;29.30;;;;;;;3.67;100.00;101438.56;4848385;29;20029;-81
2021/01/02 11:20:49;;;;;;;54.55;28.50;;;;;;;3.70;100.00;101435.91;4850564;29;20098;-81
2021/01/02 11:23:18;;;;;;;57.35;30.52;;;;;;;3.83;100.00;101430.59;4845979;29;20030;-81